Hc Nadja Maria — V2AV4 — position and weather

sailwx.info

Track history (hours):
 
Tides and Currents Weather Stations Pressure Air Temp Water Temp Dewpoint Dewpoint Depression Visibility Wind Speed Wind Dir Waves Ship Positions

Hc Nadja Maria

Last reported at 2015-Apr-23 08:33 UTC. Time now 2015-Apr-28 02:07 UTC.
Position N 16°26' W 062°32'.

Length 130 m; draft 7.4 m.

Type: Cargo ship. MMSI: 304204000.

Date/timePositionNaut miles runAvg speedWind from/ knotsBaromVisibWave heightAir tempDewpointWater temp
2015-Apr-23 08:33N 16°26' W 062°32'1312.6
2015-Apr-23 07:30N 16°31' W 062°19'1212.8
2015-Apr-23 06:33N 16°35' W 062°07'1312.7
2015-Apr-23 05:33N 16°41' W 061°55'1212.2
2015-Apr-23 04:34N 16°46' W 061°44'1212.5
2015-Apr-23 03:34N 16°52' W 061°32'1212.4
2015-Apr-23 02:33N 16°57' W 061°21'1212.4
2015-Apr-23 01:33N 17°02' W 061°09'  
2015-Apr-15 09:06N 36°38' W 026°17'712.0
2015-Apr-15 08:31N 36°43' W 026°11'1111.9
2015-Apr-15 07:33N 36°52' W 026°01'1212.1
2015-Apr-15 06:33N 37°00' W 025°50'1212.1
2015-Apr-15 05:33N 37°09' W 025°40'1211.9
2015-Apr-15 04:34N 37°18' W 025°30'1211.8
2015-Apr-15 03:33N 37°27' W 025°20'1211.5
2015-Apr-15 02:33N 37°35' W 025°10'1211.7
2015-Apr-15 01:33N 37°44' W 025°00'1211.8
2015-Apr-15 00:33N 37°52' W 024°50'1111.5
2015-Apr-14 23:33N 38°00' W 024°39'1212.0
2015-Apr-14 22:33N 38°08' W 024°28'1212.0
2015-Apr-14 21:34N 38°16' W 024°17'1212.1
2015-Apr-14 20:33N 38°25' W 024°05'  
Track history (hours):
 
Tides and Currents Weather Stations Pressure Air Temp Water Temp Dewpoint Dewpoint Depression Visibility Wind Speed Wind Dir Waves Ship Positions

Hc Nadja Maria

Last reported at 2015-Apr-23 08:33 UTC. Time now 2015-Apr-28 02:07 UTC.
Position N 16°26' W 062°32'.

Length 130 m; draft 7.4 m.

Type: Cargo ship. MMSI: 304204000.

Date/timePositionNaut miles runAvg speedWind from/ knotsBaromVisibWave heightAir tempDewpointWater temp
2015-Apr-23 08:33N 16°26' W 062°32'1312.6
2015-Apr-23 07:30N 16°31' W 062°19'1212.8
2015-Apr-23 06:33N 16°35' W 062°07'1312.7
2015-Apr-23 05:33N 16°41' W 061°55'1212.2
2015-Apr-23 04:34N 16°46' W 061°44'1212.5
2015-Apr-23 03:34N 16°52' W 061°32'1212.4
2015-Apr-23 02:33N 16°57' W 061°21'1212.4
2015-Apr-23 01:33N 17°02' W 061°09'  
2015-Apr-15 09:06N 36°38' W 026°17'712.0
2015-Apr-15 08:31N 36°43' W 026°11'1111.9
2015-Apr-15 07:33N 36°52' W 026°01'1212.1
2015-Apr-15 06:33N 37°00' W 025°50'1212.1
2015-Apr-15 05:33N 37°09' W 025°40'1211.9
2015-Apr-15 04:34N 37°18' W 025°30'1211.8
2015-Apr-15 03:33N 37°27' W 025°20'1211.5
2015-Apr-15 02:33N 37°35' W 025°10'1211.7
2015-Apr-15 01:33N 37°44' W 025°00'1211.8
2015-Apr-15 00:33N 37°52' W 024°50'1111.5
2015-Apr-14 23:33N 38°00' W 024°39'1212.0
2015-Apr-14 22:33N 38°08' W 024°28'1212.0
2015-Apr-14 21:34N 38°16' W 024°17'1212.1
2015-Apr-14 20:33N 38°25' W 024°05'  

Dump ship's entire track history